Terminal Aerodrome Forecast
Issued by NWS

Home | Current Version | Previous Version | Text Only | Print | Product List | Glossary On
Versions: 1 2 3 4 5 6 7 8 9 10 11 12 13 14 15 16 17
000
FTUS43 KMPX 061720
TAFRNH
TAF
KRNH 061720Z 0618/0718 34012G18KT 6SM -SHRA SCT008 BKN012 OVC020
      TEMPO 0618/0621 4SM -RA BR BKN008 OVC020
     FM062100 35013G19KT 5SM HZ SCT025 BKN100
     FM070200 33007KT P6SM SKC
     FM071400 01007KT P6SM FEW040=

USA.gov is the U.S. government's official web portal to all federal, state and local government web resources and services.